Time;durP1;ratioP1;P1;durP2;ratioP2;P2;SDS_P1;SDS_P2;PMS_P1;PMS_P2;Temp;Humidity;BMP_temperature;BMP_pressure;BME280_temperature;BME280_humidity;BME280_pressure;Samples;Min_cycle;Max_cycle;Signal;HPM_P1;HPM_P2
2024/02/08 00:01:26;;;;;;;;;;;;;;;8.77;79.78;96631.91;5052489;28;20076;-89
2024/02/08 00:04:14;;;;;;;;;;;;;;;8.85;79.14;96636.47;5036167;28;20008;-87
2024/02/08 00:07:04;;;;;;;;;;;;;;;8.84;79.38;96632.19;5046640;28;19932;-87
2024/02/08 00:09:55;;;;;;;;;;;;;;;8.85;79.37;96633.78;5050547;28;20491;-88
2024/02/08 00:12:43;;;;;;;;;;;;;;;8.90;79.14;96636.28;5031517;28;20337;-87
2024/02/08 00:15:31;;;;;;;;;;;;;;;8.82;79.27;96628.22;5047055;28;19924;-88
2024/02/08 00:18:19;;;;;;;;;;;;;;;8.76;79.67;96633.03;5049439;28;19931;-76
2024/02/08 00:21:09;;;;;;;;;;;;;;;8.91;79.04;96631.66;5048662;28;19925;-76
2024/02/08 00:24:00;;;;;;;;;;;;;;;8.86;79.26;96634.56;5050927;28;19956;-76
2024/02/08 00:26:48;;;;;;;;;;;;;;;8.88;79.27;96621.47;5040140;28;19925;-80
2024/02/08 00:29:40;;;;;;;;;;;;;;;8.82;79.53;96625.50;5044216;28;20067;-81
2024/02/08 00:32:31;;;;;;;;;;;;;;;8.88;79.26;96611.41;5046123;28;20301;-76
2024/02/08 00:35:20;;;;;;;;;;;;;;;8.88;79.10;96621.47;5038218;28;19949;-78
2024/02/08 00:38:08;;;;;;;;;;;;;;;8.91;79.08;96618.09;5045783;28;19925;-76
2024/02/08 00:40:58;;;;;;;;;;;;;;;8.92;78.68;96614.28;5049589;28;19925;-77
2024/02/08 00:43:46;;;;;;;;;;;;;;;8.88;79.29;96613.34;5031401;28;19989;-78
2024/02/08 00:46:34;;;;;;;;;;;;;;;8.89;78.92;96607.63;5029173;28;19925;-77
2024/02/08 00:49:22;;;;;;;;;;;;;;;8.86;78.50;96608.25;5037257;28;19932;-77
2024/02/08 00:52:12;;;;;;;;;;;;;;;8.79;79.16;96602.59;5045256;28;19932;-77
2024/02/08 00:55:00;;;;;;;;;;;;;;;8.82;79.44;96607.34;5037995;28;19925;-77
2024/02/08 00:57:49;;;;;;;;;;;;;;;8.77;79.98;96598.63;5047343;28;20367;-77
2024/02/08 01:00:37;;;;;;;;;;;;;;;8.85;79.26;96597.78;5052575;28;20388;-78
2024/02/08 01:03:26;;;;;;;;;;;;;;;8.86;79.35;96597.44;5050724;28;19929;-78
2024/02/08 01:06:14;;;;;;;;;;;;;;;8.86;79.70;96596.63;5035197;28;19947;-77
2024/02/08 01:09:02;;;;;;;;;;;;;;;8.86;79.87;96597.44;5045940;28;20335;-77
2024/02/08 01:11:51;;;;;;;;;;;;;;;8.84;79.37;96591.56;5034256;28;19928;-77
2024/02/08 01:14:42;;;;;;;;;;;;;;;8.80;79.77;96598.75;5035176;28;19932;-78
2024/02/08 01:17:32;;;;;;;;;;;;;;;8.83;80.15;96602.72;5046541;28;19925;-77
2024/02/08 01:20:22;;;;;;;;;;;;;;;8.89;79.55;96591.38;5032519;28;19932;-76
2024/02/08 01:23:11;;;;;;;;;;;;;;;8.80;79.86;96590.63;5048708;28;20295;-77
2024/02/08 01:25:59;;;;;;;;;;;;;;;8.88;79.91;96595.16;5033253;28;20014;-77
2024/02/08 01:28:47;;;;;;;;;;;;;;;8.90;79.88;96589.44;5031428;28;19933;-77
2024/02/08 01:31:37;;;;;;;;;;;;;;;8.80;80.16;96592.56;5041081;28;19925;-76
2024/02/08 01:34:28;;;;;;;;;;;;;;;8.88;79.93;96595.16;5046404;28;19932;-79
2024/02/08 01:37:17;;;;;;;;;;;;;;;8.89;80.45;96590.53;5042152;28;19933;-77
2024/02/08 01:40:16;;;;;;;;;;;;;;;8.81;80.29;96584.09;5050058;28;19934;-77
2024/02/08 01:43:06;;;;;;;;;;;;;;;8.86;80.34;96592.00;5046893;28;19929;-76
2024/02/08 01:45:54;;;;;;;;;;;;;;;8.88;80.21;96583.53;5050722;28;19925;-78
2024/02/08 01:48:44;;;;;;;;;;;;;;;8.90;79.92;96587.53;5047428;28;19933;-77
2024/02/08 01:51:34;;;;;;;;;;;;;;;8.94;80.51;96576.78;5051445;28;19925;-76
2024/02/08 01:54:22;;;;;;;;;;;;;;;8.92;79.86;96590.69;5041133;28;20226;-76
2024/02/08 01:57:10;;;;;;;;;;;;;;;8.90;80.53;96587.53;5029991;28;19932;-77
2024/02/08 02:00:00;;;;;;;;;;;;;;;8.91;80.45;96580.19;5035689;28;19925;-77
2024/02/08 02:02:58;;;;;;;;;;;;;;;8.80;80.93;96577.09;5051442;28;20511;-78
2024/02/08 02:05:47;;;;;;;;;;;;;;;8.87;80.65;96582.75;5034030;28;19924;-78
2024/02/08 02:08:36;;;;;;;;;;;;;;;8.92;80.68;96579.06;5046293;28;19932;-80
2024/02/08 02:11:28;;;;;;;;;;;;;;;8.80;81.09;96574.38;5034095;28;19933;-80
2024/02/08 02:14:17;;;;;;;;;;;;;;;8.88;81.02;96575.41;5041521;28;20059;-79
2024/02/08 02:17:11;;;;;;;;;;;;;;;8.89;80.88;96575.13;5049263;28;19932;-78
2024/02/08 02:20:06;;;;;;;;;;;;;;;8.82;81.79;96580.25;5045143;28;20050;-77
2024/02/08 02:22:56;;;;;;;;;;;;;;;8.81;81.94;96575.97;5045185;28;19932;-78
2024/02/08 02:25:44;;;;;;;;;;;;;;;8.83;82.44;96576.41;5043737;28;19925;-76
2024/02/08 02:28:34;;;;;;;;;;;;;;;8.85;82.05;96574.19;5044401;28;20015;-78
2024/02/08 02:31:23;;;;;;;;;;;;;;;8.77;83.06;96566.13;5048923;28;19925;-77
2024/02/08 02:34:12;;;;;;;;;;;;;;;8.78;82.68;96573.91;5047696;28;19931;-77
2024/02/08 02:37:00;;;;;;;;;;;;;;;8.72;83.94;96569.81;5046261;28;19932;-78
2024/02/08 02:39:49;;;;;;;;;;;;;;;8.77;83.66;96566.91;5038830;28;20015;-88
2024/02/08 02:42:37;;;;;;;;;;;;;;;8.83;83.59;96565.59;5037911;28;20388;-87
2024/02/08 02:45:28;;;;;;;;;;;;;;;8.86;83.39;96570.34;5038203;28;19966;-88
2024/02/08 02:48:17;;;;;;;;;;;;;;;8.81;83.91;96561.63;5036255;28;20430;-87
2024/02/08 02:51:05;;;;;;;;;;;;;;;8.74;83.89;96566.81;5042995;28;19968;-90
2024/02/08 02:53:54;;;;;;;;;;;;;;;8.78;84.00;96571.19;5033445;28;19940;-88
2024/02/08 02:56:47;;;;;;;;;;;;;;;8.83;84.02;96559.38;5049605;28;19925;-87
2024/02/08 02:59:35;;;;;;;;;;;;;;;8.82;84.01;96568.63;5057704;28;20019;-88
2024/02/08 03:02:28;;;;;;;;;;;;;;;8.77;84.24;96566.13;5036563;28;20292;-88
2024/02/08 03:05:18;;;;;;;;;;;;;;;8.80;84.45;96565.47;5025715;28;19925;-88
2024/02/08 03:08:06;;;;;;;;;;;;;;;8.83;84.32;96565.59;5036800;28;19986;-87
2024/02/08 03:10:56;;;;;;;;;;;;;;;8.85;84.34;96567.97;5043129;28;20381;-87
2024/02/08 03:13:46;;;;;;;;;;;;;;;8.81;84.89;96564.34;5034998;28;19931;-87
2024/02/08 03:16:36;;;;;;;;;;;;;;;8.84;84.37;96567.19;5047378;28;19956;-89
2024/02/08 03:19:24;;;;;;;;;;;;;;;8.85;84.25;96559.84;5038882;28;19932;-88
2024/02/08 03:22:13;;;;;;;;;;;;;;;8.85;84.01;96560.66;5051317;28;20266;-87
2024/02/08 03:25:04;;;;;;;;;;;;;;;8.89;84.05;96560.75;5051702;28;19924;-87
2024/02/08 03:27:52;;;;;;;;;;;;;;;8.84;83.78;96567.19;5058892;28;20016;-89
2024/02/08 03:30:42;;;;;;;;;;;;;;;8.88;84.43;96559.97;5038319;28;19925;-88
2024/02/08 03:33:31;;;;;;;;;;;;;;;8.88;83.62;96553.75;5039859;28;20016;-88
2024/02/08 03:36:23;;;;;;;;;;;;;;;8.94;83.52;96549.72;5052513;28;20019;-88
2024/02/08 03:39:24;;;;;;;;;;;;;;;8.87;83.61;96550.25;5052084;28;19932;-88
2024/02/08 03:42:14;;;;;;;;;;;;;;;8.89;83.77;96545.31;5048042;28;19933;-88
2024/02/08 03:45:06;;;;;;;;;;;;;;;8.92;83.65;96547.34;5035074;28;19925;-88
2024/02/08 03:47:58;;;;;;;;;;;;;;;8.89;84.12;96547.22;5024873;28;19924;-76
2024/02/08 03:50:50;;;;;;;;;;;;;;;8.93;83.87;96554.34;5033419;28;19924;-75
2024/02/08 03:53:38;;;;;;;;;;;;;;;8.93;84.03;96550.84;5048096;28;19981;-75
2024/02/08 03:56:36;;;;;;;;;;;;;;;8.92;84.37;96554.69;5035952;28;22760;-76
2024/02/08 03:59:27;;;;;;;;;;;;;;;8.96;84.03;96547.47;5034810;28;20357;-74
2024/02/08 04:02:15;;;;;;;;;;;;;;;8.99;83.96;96551.41;5032899;28;19925;-75
2024/02/08 04:05:06;;;;;;;;;;;;;;;9.03;84.06;96553.13;5048834;28;19979;-75
2024/02/08 04:07:59;;;;;;;;;;;;;;;9.08;83.45;96546.72;5037431;28;19925;-77
2024/02/08 04:54:13;;;;;;;;;;;;;;;9.11;84.66;96546.84;5031665;28;19935;-75
2024/02/08 04:57:01;;;;;;;;;;;;;;;9.13;84.81;96547.28;5038025;28;20303;-75
2024/02/08 04:59:49;;;;;;;;;;;;;;;9.12;84.88;96542.22;5034771;28;19935;-90
2024/02/08 05:02:41;;;;;;;;;;;;;;;9.16;84.60;96538.50;5037488;28;19968;-91
2024/02/08 05:05:29;;;;;;;;;;;;;;;9.06;85.01;96549.78;5064437;28;20055;-92
2024/02/08 05:08:17;;;;;;;;;;;;;;;9.14;84.91;96545.38;5055648;28;20415;-92
2024/02/08 05:11:09;;;;;;;;;;;;;;;9.18;85.13;96538.16;5044966;28;19979;-92
2024/02/08 05:14:00;;;;;;;;;;;;;;;9.16;85.11;96540.41;5057722;28;19928;-91
2024/02/08 05:16:54;;;;;;;;;;;;;;;9.25;84.75;96541.09;5045456;28;19925;-91
2024/02/08 05:19:43;;;;;;;;;;;;;;;9.41;84.07;96539.31;5054829;28;19950;-91
2024/02/08 05:22:32;;;;;;;;;;;;;;;9.48;84.39;96540.69;5046539;28;19931;-91
2024/02/08 05:25:21;;;;;;;;;;;;;;;9.47;84.15;96534.47;5051598;28;19929;-93
2024/02/08 05:28:14;;;;;;;;;;;;;;;9.53;83.90;96541.25;5052167;28;20013;-90
2024/02/08 05:31:02;;;;;;;;;;;;;;;9.58;84.14;96541.03;5045491;28;19932;-86
2024/02/08 05:33:51;;;;;;;;;;;;;;;9.62;83.63;96536.53;5034282;28;19933;-90
2024/02/08 05:36:40;;;;;;;;;;;;;;;9.65;83.18;96541.28;5035527;28;19975;-93
2024/02/08 05:39:29;;;;;;;;;;;;;;;9.75;83.37;96539.22;5035066;28;19936;-88
2024/02/08 05:42:17;;;;;;;;;;;;;;;9.71;83.48;96539.13;5048902;28;19979;-91
2024/02/08 05:45:18;;;;;;;;;;;;;;;9.75;82.77;96529.19;5051585;28;19925;-93
2024/02/08 05:48:07;;;;;;;;;;;;;;;9.74;83.21;96543.88;5054879;28;19960;-92
2024/02/08 05:50:56;;;;;;;;;;;;;;;9.76;83.28;96536.19;5057612;28;19929;-91
2024/02/08 05:53:45;;;;;;;;;;;;;;;9.72;83.25;96538.00;5056706;28;19931;-84
2024/02/08 05:56:33;;;;;;;;;;;;;;;9.69;83.22;96525.94;5051285;28;19932;-90
2024/02/08 05:59:21;;;;;;;;;;;;;;;9.76;83.51;96528.06;5048638;28;19929;-94
2024/02/08 06:02:22;;;;;;;;;;;;;;;9.77;83.48;96529.66;5059528;28;19924;-88
2024/02/08 06:05:17;;;;;;;;;;;;;;;9.83;83.02;96531.00;5038582;28;19933;-81
2024/02/08 06:08:25;;;;;;;;;;;;;;;9.81;82.88;96530.56;5060091;28;19992;-90
2024/02/08 06:11:16;;;;;;;;;;;;;;;9.72;83.50;96535.28;5047506;28;20399;-91
2024/02/08 06:14:12;;;;;;;;;;;;;;;9.66;84.00;96525.81;5052288;28;19932;-90
2024/02/08 06:17:06;;;;;;;;;;;;;;;9.74;83.47;96532.22;5043301;28;20269;-93
2024/02/08 06:19:56;;;;;;;;;;;;;;;9.72;83.69;96538.00;5052681;28;19925;-90
2024/02/08 06:22:48;;;;;;;;;;;;;;;9.75;83.56;96533.81;5056831;28;19924;-94
2024/02/08 06:25:36;;;;;;;;;;;;;;;9.68;84.09;96534.38;5047868;28;19929;-95
2024/02/08 06:28:26;;;;;;;;;;;;;;;9.74;83.79;96532.22;5042979;28;19925;-94
2024/02/08 06:31:17;;;;;;;;;;;;;;;9.75;83.97;96529.19;5057245;28;19924;-95
2024/02/08 06:34:42;;;;;;;;;;;;;;;9.97;83.43;96531.44;5047719;28;19925;-95
2024/02/08 06:37:31;;;;;;;;;;;;;;;9.93;83.72;96530.53;5064784;28;19925;-95
2024/02/08 06:40:24;;;;;;;;;;;;;;;9.96;83.39;96529.06;5055912;28;19928;-95
2024/02/08 06:43:44;;;;;;;;;;;;;;;9.94;83.86;96526.69;5038805;28;19928;-93
2024/02/08 06:46:47;;;;;;;;;;;;;;;10.05;83.23;96527.00;5040804;28;19924;-94
2024/02/08 07:39:34;;;;;;;;;;;;;;;10.05;82.36;96545.22;5046690;28;19932;-86
2024/02/08 07:42:32;;;;;;;;;;;;;;;9.96;82.83;96540.72;5032078;28;20330;-87
2024/02/08 07:45:26;;;;;;;;;;;;;;;10.06;82.53;96550.28;5032272;28;20394;-86
2024/02/08 07:48:27;;;;;;;;;;;;;;;10.09;82.57;96537.97;5048296;28;19928;-87
2024/02/08 07:51:17;;;;;;;;;;;;;;;10.08;81.96;96531.78;5032150;28;20339;-86
2024/02/08 07:54:10;;;;;;;;;;;;;;;10.08;82.14;96547.25;5051466;28;20288;-84
2024/02/08 07:57:00;;;;;;;;;;;;;;;10.11;82.10;96535.72;5048846;28;19924;-85
2024/02/08 07:59:52;;;;;;;;;;;;;;;10.07;81.97;96535.63;5037106;28;20300;-84
2024/02/08 08:02:43;;;;;;;;;;;;;;;10.11;82.21;96539.22;5050212;28;19940;-85
2024/02/08 08:05:33;;;;;;;;;;;;;;;10.22;82.14;96534.09;5048899;28;20063;-88
2024/02/08 08:08:25;;;;;;;;;;;;;;;10.21;82.06;96529.81;5045439;28;19925;-87
2024/02/08 08:11:17;;;;;;;;;;;;;;;10.19;81.37;96529.38;5032974;28;19951;-86
2024/02/08 08:14:09;;;;;;;;;;;;;;;10.13;82.06;96519.91;5029990;28;19933;-87
2024/02/08 08:17:08;;;;;;;;;;;;;;;10.10;81.90;96528.72;5033488;28;19925;-85
2024/02/08 08:20:03;;;;;;;;;;;;;;;10.07;82.30;96530.19;5052152;28;19931;-87
2024/02/08 08:22:58;;;;;;;;;;;;;;;10.00;82.91;96537.31;5046356;28;19936;-83
2024/02/08 08:28:52;;;;;;;;;;;;;;;10.16;82.55;96527.34;5030525;28;20308;-80
2024/02/08 08:31:51;;;;;;;;;;;;;;;10.27;82.26;96531.19;5042317;28;19991;-79
2024/02/08 08:37:46;;;;;;;;;;;;;;;10.39;81.30;96523.03;5047518;28;19925;-77
2024/02/08 08:40:37;;;;;;;;;;;;;;;10.41;81.31;96530.81;5033342;28;20070;-78
2024/02/08 08:43:27;;;;;;;;;;;;;;;10.50;81.23;96523.34;5051841;28;19928;-79
2024/02/08 08:46:19;;;;;;;;;;;;;;;10.47;81.00;96522.09;5048102;28;20883;-80
2024/02/08 08:49:14;;;;;;;;;;;;;;;10.48;81.64;96523.66;5048631;28;20067;-86
2024/02/08 08:52:04;;;;;;;;;;;;;;;10.56;81.22;96516.53;5052655;28;20071;-79
2024/02/08 08:55:01;;;;;;;;;;;;;;;10.59;80.31;96525.91;5031778;28;20439;-80
2024/02/08 08:58:00;;;;;;;;;;;;;;;10.56;80.36;96530.09;5034713;28;20125;-78
2024/02/08 09:00:58;;;;;;;;;;;;;;;10.52;81.35;96526.50;5028868;28;19929;-80
2024/02/08 09:03:55;;;;;;;;;;;;;;;10.60;81.41;96524.75;5047348;28;19983;-79
2024/02/08 09:06:47;;;;;;;;;;;;;;;10.46;81.18;96525.16;5032588;28;20344;-78
2024/02/08 09:09:54;;;;;;;;;;;;;;;10.63;80.82;96534.94;5026616;28;19929;-79
2024/02/08 09:12:58;;;;;;;;;;;;;;;10.55;80.60;96530.47;5043127;28;20000;-79
2024/02/08 09:15:55;;;;;;;;;;;;;;;10.58;80.58;96533.25;5035015;28;20296;-78
2024/02/08 09:19:04;;;;;;;;;;;;;;;10.57;80.79;96528.97;5033718;28;19928;-79
2024/02/08 09:21:53;;;;;;;;;;;;;;;10.39;81.81;96528.47;5032218;28;19933;-79
2024/02/08 09:24:44;;;;;;;;;;;;;;;10.60;81.29;96531.00;5040879;28;20010;-79
2024/02/08 09:27:34;;;;;;;;;;;;;;;10.59;81.63;96528.63;5032767;28;19924;-79
2024/02/08 09:30:38;;;;;;;;;;;;;;;10.60;81.70;96530.19;5042907;28;19970;-79
2024/02/08 09:33:35;;;;;;;;;;;;;;;10.56;82.36;96532.03;5030371;28;19936;-79
2024/02/08 09:36:25;;;;;;;;;;;;;;;10.52;82.68;96528.41;5028596;28;19932;-79
2024/02/08 09:39:19;;;;;;;;;;;;;;;10.51;83.46;96522.19;5046584;28;19929;-79
2024/02/08 09:42:09;;;;;;;;;;;;;;;10.56;83.82;96529.31;5033142;28;19929;-80
2024/02/08 09:45:13;;;;;;;;;;;;;;;10.64;82.86;96531.09;5048158;28;19960;-80
2024/02/08 09:48:06;;;;;;;;;;;;;;;10.69;82.65;96525.41;5046958;28;19924;-79
2024/02/08 09:50:59;;;;;;;;;;;;;;;10.68;82.24;96529.28;5034106;28;19979;-79
2024/02/08 09:53:51;;;;;;;;;;;;;;;10.70;82.15;96529.69;5020792;28;19925;-78
2024/02/08 09:56:49;;;;;;;;;;;;;;;10.73;81.72;96523.59;5032498;28;19939;-79
2024/02/08 10:02:54;;;;;;;;;;;;;;;10.84;81.55;96516.53;5044074;28;19925;-79
2024/02/08 10:08:54;;;;;;;;;;;;;;;10.89;83.06;96510.06;5043429;28;19933;-80
2024/02/08 10:11:53;;;;;;;;;;;;;;;11.08;82.20;96515.63;5045140;28;19925;-79
2024/02/08 10:14:44;;;;;;;;;;;;;;;11.02;82.14;96509.66;5034047;28;19925;-80
2024/02/08 10:17:41;;;;;;;;;;;;;;;11.24;81.62;96507.50;5030301;28;20070;-79
2024/02/08 10:20:45;;;;;;;;;;;;;;;11.28;80.83;96513.78;5042208;28;19932;-79
2024/02/08 10:23:38;;;;;;;;;;;;;;;11.32;80.80;96503.00;5034110;28;19928;-81
2024/02/08 10:26:38;;;;;;;;;;;;;;;11.23;81.15;96497.72;5048766;28;19932;-81
2024/02/08 10:29:31;;;;;;;;;;;;;;;11.36;80.75;96487.59;5033038;28;19925;-79
2024/02/08 10:32:20;;;;;;;;;;;;;;;11.37;80.90;96486.44;5039081;28;19929;-80
2024/02/08 10:35:19;;;;;;;;;;;;;;;11.38;81.43;96488.78;5014762;28;20047;-80
2024/02/08 10:38:18;;;;;;;;;;;;;;;11.36;80.14;96491.09;5046396;28;19965;-81
2024/02/08 10:41:11;;;;;;;;;;;;;;;11.32;80.31;96494.84;5043928;28;20300;-79
2024/02/08 10:44:00;;;;;;;;;;;;;;;11.32;80.59;96482.06;5034433;28;20059;-84
2024/02/08 10:46:49;;;;;;;;;;;;;;;11.33;80.30;96482.84;5044643;28;19968;-79
2024/02/08 10:49:44;;;;;;;;;;;;;;;11.27;80.09;96474.16;5065275;28;19925;-94
2024/02/08 10:52:33;;;;;;;;;;;;;;;11.31;80.24;96483.19;5071308;28;19929;-95
2024/02/08 10:55:30;;;;;;;;;;;;;;;11.28;80.60;96475.72;5073013;28;19913;-94
2024/02/08 10:58:28;;;;;;;;;;;;;;;11.30;80.85;96470.75;5042977;28;19929;-96
2024/02/08 11:04:21;;;;;;;;;;;;;;;11.54;79.50;96458.88;5074809;28;19919;-95
2024/02/08 11:07:17;;;;;;;;;;;;;;;11.41;79.44;96449.25;5073490;28;20012;-96
2024/02/08 11:10:05;;;;;;;;;;;;;;;11.49;79.56;96432.72;5056292;28;19929;-94
2024/02/08 11:12:55;;;;;;;;;;;;;;;11.51;79.72;96441.34;5020913;28;19963;-96
2024/02/08 11:15:49;;;;;;;;;;;;;;;11.59;79.46;96438.78;5047913;28;19932;-96
2024/02/08 11:18:38;;;;;;;;;;;;;;;11.63;79.03;96429.56;5049277;28;20451;-96
2024/02/08 11:21:42;;;;;;;;;;;;;;;11.63;79.08;96423.34;5047153;28;20027;-96
2024/02/08 11:24:38;;;;;;;;;;;;;;;11.63;79.04;96424.13;5039663;28;19925;-95
2024/02/08 11:27:28;;;;;;;;;;;;;;;11.66;79.07;96407.09;5047939;28;19925;-95
2024/02/08 11:30:19;;;;;;;;;;;;;;;11.63;78.92;96407.03;5054392;28;20055;-95
2024/02/08 11:33:12;;;;;;;;;;;;;;;11.54;79.76;96415.38;5056390;28;20291;-95
2024/02/08 11:36:11;;;;;;;;;;;;;;;11.58;79.87;96410.81;5050863;28;19925;-96
2024/02/08 11:39:26;;;;;;;;;;;;;;;11.63;80.08;96404.31;5056382;28;19924;-96
2024/02/08 11:42:16;;;;;;;;;;;;;;;11.69;79.91;96400.16;5051560;28;20019;-96
2024/02/08 11:45:09;;;;;;;;;;;;;;;11.61;79.53;96403.84;5051394;28;20341;-94
2024/02/08 11:48:03;;;;;;;;;;;;;;;11.71;79.57;96403.31;5038591;28;20022;-95
2024/02/08 11:50:55;;;;;;;;;;;;;;;11.67;79.13;96405.97;5041322;28;20277;-95
2024/02/08 11:53:44;;;;;;;;;;;;;;;11.71;79.44;96392.41;5057382;28;19940;-96
2024/02/08 11:56:34;;;;;;;;;;;;;;;11.66;79.52;96398.91;5043916;28;19924;-95
2024/02/08 11:59:24;;;;;;;;;;;;;;;11.70;79.12;96393.56;5044191;28;19925;-78
2024/02/08 12:02:15;;;;;;;;;;;;;;;11.78;79.78;96387.94;5049499;28;20306;-78
2024/02/08 12:05:04;;;;;;;;;;;;;;;11.84;79.23;96374.09;5044176;28;19935;-78
2024/02/08 12:07:53;;;;;;;;;;;;;;;11.79;79.28;96381.34;5052656;28;19932;-76
2024/02/08 12:10:49;;;;;;;;;;;;;;;11.80;79.06;96374.75;5036274;28;20054;-74
2024/02/08 12:13:39;;;;;;;;;;;;;;;11.82;78.99;96382.59;5035751;28;19932;-77
2024/02/08 12:16:28;;;;;;;;;;;;;;;11.84;78.98;96374.09;5049369;28;20543;-79
2024/02/08 12:19:16;;;;;;;;;;;;;;;11.86;79.03;96364.41;5027832;28;19944;-78
2024/02/08 12:22:05;;;;;;;;;;;;;;;11.88;79.55;96364.03;5045407;28;20055;-77
2024/02/08 12:24:58;;;;;;;;;;;;;;;11.86;79.45;96361.69;5033744;28;20403;-81
2024/02/08 12:27:49;;;;;;;;;;;;;;;11.96;79.67;96352.97;5055350;28;20549;-77
2024/02/08 12:30:39;;;;;;;;;;;;;;;12.05;79.34;96358.97;5048094;28;19948;-77
2024/02/08 12:33:28;;;;;;;;;;;;;;;11.93;79.44;96347.44;5034144;28;20072;-78
2024/02/08 12:36:16;;;;;;;;;;;;;;;12.06;79.11;96338.78;5051140;28;19933;-77
2024/02/08 12:39:17;;;;;;;;;;;;;;;12.05;79.14;96337.19;5046182;28;19925;-78
2024/02/08 12:42:06;;;;;;;;;;;;;;;12.03;78.98;96339.47;5049872;28;19959;-79
2024/02/08 12:44:56;;;;;;;;;;;;;;;12.04;79.38;96332.91;5038275;28;20343;-78
2024/02/08 12:47:52;;;;;;;;;;;;;;;11.96;79.71;96322.22;5045188;28;20479;-77
2024/02/08 12:50:40;;;;;;;;;;;;;;;12.05;79.69;96323.59;5034474;28;19926;-80
2024/02/08 12:53:29;;;;;;;;;;;;;;;12.00;79.27;96318.44;5034070;28;19951;-82
2024/02/08 12:56:18;;;;;;;;;;;;;;;11.96;79.89;96327.69;5055819;28;19936;-77
2024/02/08 12:59:07;;;;;;;;;;;;;;;11.83;80.42;96313.44;5052348;28;19931;-79
2024/02/08 13:01:55;;;;;;;;;;;;;;;11.96;79.68;96317.56;5043030;28;19924;-79
2024/02/08 13:04:48;;;;;;;;;;;;;;;11.92;79.26;96311.28;5046479;28;19931;-77
2024/02/08 13:07:38;;;;;;;;;;;;;;;11.75;80.36;96301.56;5051827;28;19933;-79
2024/02/08 13:10:28;;;;;;;;;;;;;;;11.83;80.44;96301.78;5033739;28;19925;-75
2024/02/08 13:13:23;;;;;;;;;;;;;;;11.81;79.87;96293.91;5036179;28;19975;-75
2024/02/08 13:16:11;;;;;;;;;;;;;;;11.83;80.54;96305.28;5054059;28;20409;-74
2024/02/08 13:19:00;;;;;;;;;;;;;;;11.75;80.85;96295.34;5037748;28;19939;-75
2024/02/08 13:21:49;;;;;;;;;;;;;;;11.80;80.93;96301.28;5041722;28;19948;-74
2024/02/08 13:24:37;;;;;;;;;;;;;;;11.76;81.04;96291.47;5049644;28;19947;-75
2024/02/08 13:27:28;;;;;;;;;;;;;;;11.81;80.96;96299.34;5033987;28;19925;-75
2024/02/08 13:30:17;;;;;;;;;;;;;;;11.82;80.95;96295.50;5051660;28;20029;-75
2024/02/08 13:33:06;;;;;;;;;;;;;;;11.93;79.92;96287.56;5049457;28;19947;-75
2024/02/08 13:35:55;;;;;;;;;;;;;;;11.99;79.48;96288.88;5047464;28;20395;-74
2024/02/08 13:38:44;;;;;;;;;;;;;;;11.92;79.64;96284.06;5030284;28;19924;-75
2024/02/08 13:41:33;;;;;;;;;;;;;;;11.93;80.10;96285.66;5033875;28;19925;-75
2024/02/08 13:44:24;;;;;;;;;;;;;;;11.93;80.09;96285.66;5042602;28;19935;-74
2024/02/08 13:47:12;;;;;;;;;;;;;;;11.91;79.70;96276.25;5050663;28;20285;-74
2024/02/08 13:50:11;;;;;;;;;;;;;;;11.92;79.88;96283.28;5044958;28;20005;-74
2024/02/08 13:52:59;;;;;;;;;;;;;;;12.01;79.64;96273.75;5044345;28;20012;-74
2024/02/08 13:55:52;;;;;;;;;;;;;;;11.95;80.01;96268.97;5047659;28;19974;-74
2024/02/08 13:58:43;;;;;;;;;;;;;;;11.98;79.64;96271.72;5047299;28;19925;-74
2024/02/08 14:01:32;;;;;;;;;;;;;;;11.83;80.59;96274.56;5050479;28;20568;-75
2024/02/08 14:04:22;;;;;;;;;;;;;;;11.86;80.02;96265.66;5045087;28;20048;-73
2024/02/08 14:07:11;;;;;;;;;;;;;;;11.74;80.78;96275.53;5048353;28;20328;-74
2024/02/08 14:09:59;;;;;;;;;;;;;;;11.88;80.63;96271.53;5045391;28;19925;-74
2024/02/08 14:12:53;;;;;;;;;;;;;;;11.90;80.43;96270.03;5040425;28;19925;-74
2024/02/08 14:15:45;;;;;;;;;;;;;;;11.85;81.00;96273.03;5030689;28;19933;-73
2024/02/08 14:18:37;;;;;;;;;;;;;;;11.79;80.73;96264.34;5050875;28;20388;-88
2024/02/08 14:21:28;;;;;;;;;;;;;;;11.78;80.60;96267.44;5053200;28;19936;-89
2024/02/08 14:24:18;;;;;;;;;;;;;;;11.75;80.15;96263.50;5055758;28;19924;-89
2024/02/08 14:27:07;;;;;;;;;;;;;;;11.80;80.15;96276.03;5029607;28;19924;-88
2024/02/08 14:29:57;;;;;;;;;;;;;;;11.68;80.75;96268.78;5031550;28;19925;-88
2024/02/08 14:32:45;;;;;;;;;;;;;;;11.70;80.73;96265.72;5040391;28;19932;-87
2024/02/08 14:35:34;;;;;;;;;;;;;;;11.75;80.92;96268.16;5031269;28;20050;-88
2024/02/08 14:38:22;;;;;;;;;;;;;;;11.71;80.51;96267.28;5054877;28;19957;-82
2024/02/08 14:41:25;;;;;;;;;;;;;;;11.63;80.33;96260.13;5051501;28;19932;-83
2024/02/08 14:44:17;;;;;;;;;;;;;;;11.57;80.82;96262.34;5050174;28;20296;-82
2024/02/08 14:47:07;;;;;;;;;;;;;;;11.60;80.98;96269.00;5051717;28;20020;-83
2024/02/08 14:49:55;;;;;;;;;;;;;;;11.59;80.95;96259.28;5038189;28;19924;-83
2024/02/08 14:52:49;;;;;;;;;;;;;;;11.66;80.73;96264.84;5050980;28;19928;-82
2024/02/08 14:55:45;;;;;;;;;;;;;;;11.68;80.63;96259.84;5039241;28;20088;-81
2024/02/08 14:58:33;;;;;;;;;;;;;;;11.68;80.55;96262.56;5047778;28;19925;-85
2024/02/08 15:01:38;;;;;;;;;;;;;;;11.62;80.58;96272.16;5051019;28;19924;-82
2024/02/08 15:04:30;;;;;;;;;;;;;;;11.70;80.85;96255.63;5035299;28;20016;-82
2024/02/08 15:07:47;;;;;;;;;;;;;;;11.76;80.12;96248.72;5057921;28;19928;-80
2024/02/08 15:10:43;;;;;;;;;;;;;;;11.81;79.82;96253.09;5059350;28;19929;-89
2024/02/08 15:13:45;;;;;;;;;;;;;;;11.77;79.95;96254.97;5054761;28;19931;-89
2024/02/08 15:16:37;;;;;;;;;;;;;;;11.82;79.55;96259.34;5039792;28;20011;-85
2024/02/08 15:19:26;;;;;;;;;;;;;;;11.75;79.67;96255.31;5049220;28;19931;-90
2024/02/08 15:22:18;;;;;;;;;;;;;;;11.74;79.75;96255.69;5053896;28;19925;-89
2024/02/08 15:25:08;;;;;;;;;;;;;;;11.77;79.68;96254.97;5052837;28;20398;-91
2024/02/08 15:27:56;;;;;;;;;;;;;;;11.77;79.47;96249.50;5056018;28;19924;-95
2024/02/08 15:30:52;;;;;;;;;;;;;;;11.75;79.61;96257.25;5046260;28;19932;-90
2024/02/08 15:36:48;;;;;;;;;;;;;;;11.69;79.68;96269.59;5055932;28;19929;-94
2024/02/08 15:39:58;;;;;;;;;;;;;;;11.69;79.58;96269.59;5045635;28;19931;-92
2024/02/08 15:42:48;;;;;;;;;;;;;;;11.67;79.80;96266.44;5052929;28;19940;-90
2024/02/08 15:45:41;;;;;;;;;;;;;;;11.64;79.72;96257.06;5053264;28;19925;-90
2024/02/08 15:48:32;;;;;;;;;;;;;;;11.73;79.17;96257.63;5053583;28;19929;-91
2024/02/08 15:51:23;;;;;;;;;;;;;;;11.64;79.12;96250.81;5053270;28;20038;-88
2024/02/08 15:54:21;;;;;;;;;;;;;;;11.67;79.28;96242.75;5051065;28;19932;-90
2024/02/08 15:57:12;;;;;;;;;;;;;;;11.73;78.73;96237.81;5041472;28;19976;-89
2024/02/08 16:00:33;;;;;;;;;;;;;;;11.73;78.15;96222.25;5049051;28;19932;-90
2024/02/08 16:03:17;;;;;;;;;;;;;;;11.73;78.27;96210.59;5063100;28;19935;-94
2024/02/08 16:09:26;;;;;;;;;;;;;;;11.83;77.85;96218.19;5040773;28;19924;-92
2024/02/08 16:12:36;;;;;;;;;;;;;;;11.76;77.35;96218.03;5052608;28;20369;-91
2024/02/08 16:15:27;;;;;;;;;;;;;;;11.78;77.47;96213.03;5035373;28;19924;-90
2024/02/08 16:18:22;;;;;;;;;;;;;;;11.85;77.33;96213.19;5045489;28;19932;-92
2024/02/08 16:21:16;;;;;;;;;;;;;;;11.98;76.71;96200.97;5042184;28;19932;-91
2024/02/08 16:24:13;;;;;;;;;;;;;;;12.01;76.25;96197.53;5051625;28;20312;-93
2024/02/08 16:27:07;;;;;;;;;;;;;;;11.99;75.74;96213.44;5057313;28;20007;-89
2024/02/08 16:30:07;;;;;;;;;;;;;;;12.06;75.48;96208.13;5054281;28;19924;-90
2024/02/08 16:32:56;;;;;;;;;;;;;;;12.06;75.21;96202.69;5051898;28;19925;-94
2024/02/08 16:35:58;;;;;;;;;;;;;;;12.01;75.96;96197.53;5035966;28;20498;-91
2024/02/08 16:38:56;;;;;;;;;;;;;;;12.13;75.06;96201.22;5053610;28;20384;-92
2024/02/08 16:41:48;;;;;;;;;;;;;;;12.10;74.73;96201.97;5044464;28;19925;-89
2024/02/08 16:44:50;;;;;;;;;;;;;;;12.02;74.99;96190.94;5059244;28;19925;-91
2024/02/08 16:47:52;;;;;;;;;;;;;;;12.06;74.60;96197.22;5074943;28;19932;-95
2024/02/08 16:50:46;;;;;;;;;;;;;;;12.10;74.72;96191.06;5071128;28;20257;-95
2024/02/08 16:53:34;;;;;;;;;;;;;;;12.06;73.82;96174.69;5042191;28;19925;-96
2024/02/08 16:56:22;;;;;;;;;;;;;;;11.96;74.26;96176.06;5054762;28;19928;-96